createdAt,value
2022-08-05T00:00:53.602Z,20.75
2022-08-05T00:03:21.541Z,20.74
2022-08-05T00:06:05.729Z,20.76
2022-08-05T00:08:36.325Z,20.70
2022-08-05T00:11:07.629Z,20.66
2022-08-05T00:13:53.084Z,20.63
2022-08-05T00:16:36.199Z,20.53
2022-08-05T00:19:08.180Z,20.52
2022-08-05T00:21:35.648Z,20.53
2022-08-05T00:24:10.639Z,20.50
2022-08-05T00:26:37.790Z,20.46
2022-08-05T00:29:04.345Z,20.42
2022-08-05T00:31:53.658Z,20.47
2022-08-05T00:34:54.019Z,20.34
2022-08-05T00:37:11.791Z,20.22
2022-08-05T00:39:41.512Z,20.09
2022-08-05T00:42:11.226Z,20.03
2022-08-05T00:44:57.812Z,19.93
2022-08-05T00:47:24.369Z,19.91
2022-08-05T00:49:52.282Z,19.84
2022-08-05T00:52:18.977Z,19.82
2022-08-05T00:54:55.998Z,19.80
2022-08-05T00:57:25.160Z,19.77
2022-08-05T00:59:58.098Z,19.77
2022-08-05T01:02:24.862Z,19.68
2022-08-05T01:04:52.740Z,19.65
2022-08-05T01:07:19.332Z,19.60
2022-08-05T01:09:45.930Z,19.57
2022-08-05T01:12:23.590Z,19.67
2022-08-05T01:14:57.553Z,19.63
2022-08-05T01:17:29.684Z,19.62
2022-08-05T01:20:13.247Z,19.55
2022-08-05T01:23:14.573Z,19.59
2022-08-05T01:25:54.007Z,19.63
2022-08-05T01:28:35.623Z,19.60
2022-08-05T01:31:09.232Z,19.54
2022-08-05T01:33:48.908Z,19.52
2022-08-05T01:36:18.672Z,19.47
2022-08-05T01:38:49.913Z,19.43
2022-08-05T01:41:21.765Z,19.41
2022-08-05T01:43:51.979Z,19.33
2022-08-05T01:46:42.376Z,19.27
2022-08-05T01:49:22.617Z,19.22
2022-08-05T01:51:55.402Z,19.19
2022-08-05T01:54:25.729Z,19.17
2022-08-05T01:58:10.810Z,19.17
2022-08-05T01:59:47.112Z,19.24
2022-08-05T02:02:15.887Z,19.26
2022-08-05T02:04:46.248Z,19.16
2022-08-05T02:07:22.049Z,19.09
2022-08-05T02:09:49.538Z,19.03
2022-08-05T02:12:25.502Z,18.98
2022-08-05T02:15:03.441Z,18.97
2022-08-05T02:18:31.381Z,19.06
2022-08-05T02:20:24.817Z,19.05
2022-08-05T02:22:58.153Z,19.04
2022-08-05T02:25:33.031Z,18.98
2022-08-05T02:28:01.701Z,18.93
2022-08-05T02:30:36.633Z,18.87
2022-08-05T02:33:06.723Z,18.78
2022-08-05T02:35:38.130Z,18.80
2022-08-05T02:38:19.326Z,18.83
2022-08-05T02:40:47.531Z,18.85
2022-08-05T02:43:16.626Z,18.87
2022-08-05T02:45:51.587Z,18.76
2022-08-05T02:48:21.187Z,18.66
2022-08-05T02:50:58.574Z,18.55
2022-08-05T02:53:25.576Z,18.50
2022-08-05T02:56:00.247Z,18.49
2022-08-05T02:58:30.322Z,18.46
2022-08-05T03:01:01.167Z,18.50
2022-08-05T03:03:34.026Z,18.47
2022-08-05T03:06:55.219Z,18.52
2022-08-05T03:08:52.434Z,18.47
2022-08-05T03:11:57.390Z,18.37
2022-08-05T03:14:08.104Z,18.29
2022-08-05T03:16:36.637Z,18.28
2022-08-05T03:19:12.918Z,18.34
2022-08-05T03:21:48.801Z,18.29
2022-08-05T03:24:17.460Z,18.32
2022-08-05T03:26:49.289Z,18.23
2022-08-05T03:29:17.367Z,18.23
2022-08-05T03:31:57.316Z,18.23
2022-08-05T03:34:28.525Z,18.05
2022-08-05T03:36:55.525Z,17.99
2022-08-05T03:39:27.219Z,18.16
2022-08-05T03:41:56.113Z,18.15
2022-08-05T03:44:23.269Z,18.04
2022-08-05T03:46:51.333Z,17.95
2022-08-05T03:49:18.358Z,17.90
2022-08-05T03:52:50.308Z,17.87
2022-08-05T03:55:49.905Z,17.81
2022-08-05T03:57:41.598Z,17.85
2022-08-05T04:00:11.896Z,17.93
2022-08-05T04:02:57.992Z,18.09
2022-08-05T04:05:27.856Z,18.03
2022-08-05T04:07:58.008Z,18.00
2022-08-05T04:10:27.614Z,17.97
2022-08-05T04:12:54.872Z,18.01
2022-08-05T04:15:24.544Z,17.95
2022-08-05T04:17:56.160Z,17.81
2022-08-05T04:20:26.508Z,17.82
2022-08-05T04:22:53.045Z,17.77
2022-08-05T04:25:20.067Z,17.78
2022-08-05T04:28:11.114Z,17.90
2022-08-05T04:30:38.061Z,17.93
2022-08-05T04:33:07.656Z,17.98
2022-08-05T04:36:15.804Z,18.06
2022-08-05T04:38:20.763Z,18.05
2022-08-05T04:40:50.555Z,17.94
2022-08-05T04:43:17.994Z,18.03
2022-08-05T04:45:54.942Z,18.01
2022-08-05T04:48:28.140Z,18.09
2022-08-05T04:51:02.716Z,18.11
2022-08-05T04:53:38.762Z,18.27
2022-08-05T04:56:32.998Z,18.46
2022-08-05T04:58:53.050Z,18.67
2022-08-05T05:02:06.426Z,18.81
2022-08-05T05:04:08.624Z,18.76
2022-08-05T05:06:44.031Z,18.71
2022-08-05T05:09:13.316Z,18.78
2022-08-05T05:11:53.156Z,18.79
2022-08-05T05:14:31.247Z,18.94
2022-08-05T05:16:58.956Z,19.22
2022-08-05T05:19:36.139Z,19.24
2022-08-05T05:22:22.869Z,19.43
2022-08-05T05:24:56.788Z,19.65
2022-08-05T05:27:41.453Z,19.80
2022-08-05T05:30:29.881Z,19.94
2022-08-05T05:33:00.165Z,20.00
2022-08-05T05:35:34.430Z,20.56
2022-08-05T05:38:05.626Z,20.75
2022-08-05T05:40:35.682Z,20.92
2022-08-05T05:43:03.078Z,21.24
2022-08-05T05:45:29.746Z,21.89
2022-08-05T05:48:06.907Z,22.43
2022-08-05T05:50:43.928Z,22.58
2022-08-05T05:53:21.362Z,22.84
2022-08-05T05:55:52.451Z,22.28
2022-08-05T05:58:32.002Z,22.37
2022-08-05T06:01:04.934Z,22.73
2022-08-05T06:04:01.342Z,23.56
2022-08-05T06:06:30.785Z,24.17
2022-08-05T06:08:57.851Z,23.98
2022-08-05T06:11:24.452Z,24.54
2022-08-05T06:13:53.986Z,24.35
2022-08-05T06:16:29.921Z,24.20
2022-08-05T06:19:00.019Z,25.08
2022-08-05T06:21:36.039Z,25.54
2022-08-05T06:24:06.006Z,25.16
2022-08-05T06:26:35.073Z,25.38
2022-08-05T06:29:03.659Z,24.74
2022-08-05T06:31:33.769Z,25.49
2022-08-05T06:34:05.969Z,25.28
2022-08-05T06:36:53.459Z,25.69
2022-08-05T06:39:22.514Z,26.52
2022-08-05T06:41:53.583Z,27.08
2022-08-05T06:44:22.041Z,27.12
2022-08-05T06:46:51.119Z,27.52
2022-08-05T06:49:18.949Z,27.21
2022-08-05T06:51:49.321Z,27.22
2022-08-05T06:54:18.199Z,27.84
2022-08-05T06:56:54.735Z,28.06
2022-08-05T06:59:38.853Z,28.85
2022-08-05T07:02:09.106Z,29.33
2022-08-05T07:04:36.421Z,29.23
2022-08-05T07:07:07.952Z,29.60
2022-08-05T07:09:37.472Z,29.36
2022-08-05T07:12:08.746Z,29.45
2022-08-05T07:14:35.246Z,29.29
2022-08-05T07:18:02.278Z,29.37
2022-08-05T07:22:36.955Z,28.86
2022-08-05T07:25:23.720Z,28.61
2022-08-05T07:28:00.632Z,28.02
2022-08-05T07:30:32.462Z,28.10
2022-08-05T07:33:00.126Z,27.70
2022-08-05T07:36:03.086Z,27.53
2022-08-05T07:38:32.091Z,27.40
2022-08-05T07:41:16.533Z,27.00
2022-08-05T07:43:48.606Z,27.08
2022-08-05T07:46:20.762Z,27.06
2022-08-05T07:49:02.810Z,27.23
2022-08-05T07:51:37.269Z,27.48
2022-08-05T07:54:09.955Z,27.78
2022-08-05T07:57:00.380Z,27.66
2022-08-05T07:59:37.996Z,27.66
2022-08-05T08:02:15.847Z,27.79
2022-08-05T08:04:45.600Z,27.87
2022-08-05T08:07:12.518Z,27.73
2022-08-05T08:09:40.447Z,27.77
2022-08-05T08:12:16.516Z,27.94
2022-08-05T08:14:54.046Z,27.76
2022-08-05T08:17:21.441Z,27.61
2022-08-05T08:20:21.697Z,27.64
2022-08-05T08:22:35.784Z,27.59
2022-08-05T08:25:15.764Z,28.05
2022-08-05T08:27:47.973Z,28.47
2022-08-05T08:30:30.137Z,29.01
2022-08-05T08:33:08.446Z,28.97
2022-08-05T08:35:41.305Z,29.12
2022-08-05T08:38:08.493Z,29.33
2022-08-05T08:40:39.849Z,29.72
2022-08-05T08:45:20.047Z,29.61
2022-08-05T08:45:54.502Z,29.75
2022-08-05T08:48:43.005Z,30.14
2022-08-05T08:52:04.359Z,30.09
2022-08-05T08:53:55.381Z,30.31
2022-08-05T08:56:23.529Z,30.21
2022-08-05T08:58:53.888Z,30.28
2022-08-05T09:01:20.610Z,30.26
2022-08-05T09:03:54.498Z,30.33
2022-08-05T09:06:29.269Z,30.51
2022-08-05T09:08:58.457Z,30.56
2022-08-05T09:11:51.672Z,30.75
2022-08-05T09:14:58.095Z,30.96
2022-08-05T09:17:01.095Z,31.06
2022-08-05T09:19:36.830Z,31.22
2022-08-05T09:22:30.855Z,31.57
2022-08-05T09:24:59.169Z,31.71
2022-08-05T09:28:05.219Z,31.59
2022-08-05T09:30:23.307Z,31.38
2022-08-05T09:32:51.650Z,31.71
2022-08-05T09:35:26.473Z,31.77
2022-08-05T09:38:16.536Z,31.83
2022-08-05T09:40:44.625Z,31.93
2022-08-05T09:43:40.750Z,31.74
2022-08-05T09:46:27.708Z,31.84
2022-08-05T09:49:07.820Z,31.63
2022-08-05T09:51:42.769Z,31.46
2022-08-05T09:54:10.133Z,31.56
2022-08-05T09:56:38.483Z,31.77
2022-08-05T09:59:09.213Z,31.58
2022-08-05T10:01:45.724Z,31.74
2022-08-05T10:04:16.237Z,31.57
2022-08-05T10:06:58.847Z,31.62
2022-08-05T10:09:28.403Z,31.76
2022-08-05T10:12:30.392Z,31.78
2022-08-05T10:15:13.635Z,31.58
2022-08-05T10:17:47.174Z,31.73
2022-08-05T10:20:23.711Z,31.51
2022-08-05T10:22:52.503Z,31.62
2022-08-05T10:25:19.641Z,31.30
2022-08-05T10:28:13.310Z,31.25
2022-08-05T10:32:46.918Z,31.09
2022-08-05T10:33:23.949Z,31.25
2022-08-05T10:35:59.803Z,31.30
2022-08-05T10:38:27.817Z,31.35
2022-08-05T10:41:08.850Z,30.98
2022-08-05T10:43:47.666Z,31.34
2022-08-05T10:46:19.393Z,31.52
2022-08-05T10:48:58.032Z,31.43
2022-08-05T10:51:57.335Z,31.31
2022-08-05T10:54:47.190Z,31.77
2022-08-05T10:57:26.246Z,32.02
2022-08-05T11:00:13.245Z,31.90
2022-08-05T11:03:25.915Z,31.82
2022-08-05T11:06:05.157Z,31.62
2022-08-05T11:08:37.374Z,31.45
2022-08-05T11:11:44.647Z,31.64
2022-08-05T11:14:57.752Z,31.73
2022-08-05T11:17:57.948Z,31.83
2022-08-05T11:20:44.264Z,31.72
2022-08-05T11:23:33.413Z,31.59
2022-08-05T11:26:04.943Z,31.73
2022-08-05T11:28:43.348Z,31.58
2022-08-05T11:31:58.122Z,31.72
2022-08-05T11:34:14.880Z,31.66
2022-08-05T11:36:52.812Z,31.53
2022-08-05T11:39:50.329Z,31.48
2022-08-05T11:42:28.405Z,31.40
2022-08-05T11:45:02.147Z,31.47
2022-08-05T11:47:48.684Z,31.65
2022-08-05T11:50:16.896Z,31.51
2022-08-05T11:52:48.396Z,31.70
2022-08-05T11:55:16.239Z,31.99
2022-08-05T11:58:09.499Z,32.17
2022-08-05T12:00:32.552Z,32.26
2022-08-05T12:03:28.875Z,32.12
2022-08-05T12:05:59.394Z,32.23
2022-08-05T12:08:27.907Z,32.37
2022-08-05T12:10:59.190Z,32.30
2022-08-05T12:13:49.111Z,32.43
2022-08-05T12:16:18.745Z,32.38
2022-08-05T12:18:52.696Z,32.40
2022-08-05T12:21:23.587Z,32.58
2022-08-05T12:24:00.204Z,32.39
2022-08-05T12:26:32.415Z,32.52
2022-08-05T12:28:59.695Z,32.69
2022-08-05T12:31:33.499Z,32.65
2022-08-05T12:34:14.633Z,32.61
2022-08-05T12:36:48.115Z,32.63
2022-08-05T12:39:16.382Z,32.77
2022-08-05T12:41:43.711Z,32.96
2022-08-05T12:44:14.176Z,32.96
2022-08-05T12:46:45.519Z,33.06
2022-08-05T12:49:14.223Z,33.07
2022-08-05T12:52:13.677Z,33.06
2022-08-05T12:54:33.386Z,33.05
2022-08-05T12:57:02.515Z,33.22
2022-08-05T13:00:08.741Z,33.29
2022-08-05T13:02:21.743Z,33.21
2022-08-05T13:04:55.202Z,33.11
2022-08-05T13:07:54.723Z,33.08
2022-08-05T13:10:13.365Z,33.29
2022-08-05T13:12:50.707Z,33.38
2022-08-05T13:15:24.551Z,33.43
2022-08-05T13:18:05.382Z,33.46
2022-08-05T13:20:35.239Z,33.32
2022-08-05T13:23:07.411Z,33.45
2022-08-05T13:25:52.301Z,33.41
2022-08-05T13:28:22.046Z,33.55
2022-08-05T13:30:49.022Z,33.49
2022-08-05T13:34:21.307Z,33.42
2022-08-05T13:36:06.380Z,33.38
2022-08-05T13:38:36.253Z,33.47
2022-08-05T13:41:06.623Z,33.40
2022-08-05T13:43:45.890Z,33.44
2022-08-05T13:46:30.739Z,33.56
2022-08-05T13:49:04.704Z,33.66
2022-08-05T13:51:40.888Z,33.75
2022-08-05T13:54:11.836Z,33.88
2022-08-05T13:56:50.996Z,33.74
2022-08-05T13:59:21.459Z,33.45
2022-08-05T14:01:58.337Z,33.34
2022-08-05T14:04:27.544Z,33.56
2022-08-05T14:07:11.827Z,33.56
2022-08-05T14:09:42.921Z,33.72
2022-08-05T14:12:17.720Z,33.66
2022-08-05T14:14:58.640Z,33.78
2022-08-05T14:17:25.254Z,33.74
2022-08-05T14:19:56.939Z,33.76
2022-08-05T14:22:30.293Z,33.66
2022-08-05T14:24:57.257Z,33.56
2022-08-05T14:27:28.376Z,33.74
2022-08-05T14:29:55.042Z,33.46
2022-08-05T14:32:27.228Z,33.46
2022-08-05T14:34:56.728Z,33.52
2022-08-05T14:37:23.654Z,33.60
2022-08-05T14:40:14.180Z,33.70
2022-08-05T14:42:44.591Z,33.70
2022-08-05T14:45:12.088Z,33.68
2022-08-05T14:48:05.536Z,33.72
2022-08-05T14:50:25.504Z,33.79
2022-08-05T14:52:56.906Z,33.88
2022-08-05T14:55:26.140Z,33.90
2022-08-05T14:58:10.802Z,34.02
2022-08-05T15:00:39.644Z,34.15
2022-08-05T15:03:26.304Z,34.24
2022-08-05T15:06:13.502Z,34.02
2022-08-05T15:08:59.777Z,34.02
2022-08-05T15:11:53.286Z,33.87
2022-08-05T15:14:33.641Z,33.82
2022-08-05T15:17:00.819Z,33.86
2022-08-05T15:19:27.623Z,33.77
2022-08-05T15:21:54.488Z,33.86
2022-08-05T15:24:26.623Z,33.73
2022-08-05T15:26:53.265Z,33.79
2022-08-05T15:29:23.871Z,33.40
2022-08-05T15:31:57.044Z,33.43
2022-08-05T15:34:31.927Z,33.65
2022-08-05T15:37:03.480Z,33.75
2022-08-05T15:40:58.245Z,33.81
2022-08-05T15:42:49.973Z,33.67
2022-08-05T15:45:09.737Z,33.65
2022-08-05T15:47:36.622Z,33.63
2022-08-05T15:50:03.970Z,33.77
2022-08-05T15:52:54.733Z,33.86
2022-08-05T15:55:17.585Z,33.95
2022-08-05T15:57:45.705Z,33.98
2022-08-05T16:00:26.199Z,33.85
2022-08-05T16:02:59.451Z,33.99
2022-08-05T16:05:28.326Z,33.94
2022-08-05T16:07:55.189Z,33.76
2022-08-05T16:10:25.472Z,33.50
2022-08-05T16:12:53.479Z,33.54
2022-08-05T16:15:24.298Z,33.22
2022-08-05T16:17:59.166Z,33.03
2022-08-05T16:20:25.850Z,33.00
2022-08-05T16:22:54.690Z,32.89
2022-08-05T16:25:21.260Z,32.77
2022-08-05T16:28:05.247Z,32.78
2022-08-05T16:30:34.299Z,32.78
2022-08-05T16:33:03.031Z,32.83
2022-08-05T16:35:33.588Z,32.81
2022-08-05T16:38:23.877Z,33.06
2022-08-05T16:40:55.368Z,33.30
2022-08-05T16:43:28.492Z,33.30
2022-08-05T16:46:05.379Z,33.27
2022-08-05T16:48:36.633Z,33.24
2022-08-05T16:51:08.815Z,33.30
2022-08-05T16:54:02.777Z,33.14
2022-08-05T16:56:23.711Z,33.03
2022-08-05T16:58:50.560Z,33.01
2022-08-05T17:01:19.191Z,32.93
2022-08-05T17:03:46.269Z,32.78
2022-08-05T17:06:13.296Z,32.73
2022-08-05T17:08:52.268Z,32.67
2022-08-05T17:11:23.794Z,32.52
2022-08-05T17:13:51.660Z,32.37
2022-08-05T17:16:32.636Z,32.25
2022-08-05T17:19:00.403Z,32.06
2022-08-05T17:21:35.579Z,32.13
2022-08-05T17:24:19.368Z,32.09
2022-08-05T17:26:50.481Z,31.76
2022-08-05T17:29:17.291Z,31.69
2022-08-05T17:31:59.000Z,31.53
2022-08-05T17:34:29.518Z,31.50
2022-08-05T17:36:56.884Z,31.46
2022-08-05T17:39:24.474Z,31.14
2022-08-05T17:42:19.767Z,30.93
2022-08-05T17:44:50.056Z,30.60
2022-08-05T17:47:22.038Z,30.55
2022-08-05T17:50:00.030Z,30.35
2022-08-05T17:52:31.361Z,30.10
2022-08-05T17:54:57.996Z,29.95
2022-08-05T17:57:24.704Z,30.02
2022-08-05T18:00:03.822Z,29.92
2022-08-05T18:02:33.292Z,29.68
2022-08-05T18:05:01.126Z,29.61
2022-08-05T18:07:32.974Z,29.56
2022-08-05T18:10:10.417Z,29.49
2022-08-05T18:12:37.584Z,29.35
2022-08-05T18:15:05.094Z,29.23
2022-08-05T18:17:58.813Z,29.18
2022-08-05T18:20:29.570Z,29.02
2022-08-05T18:22:58.460Z,28.96
2022-08-05T18:25:33.132Z,28.85
2022-08-05T18:28:01.655Z,28.78
2022-08-05T18:30:31.659Z,28.63
2022-08-05T18:33:00.290Z,28.48
2022-08-05T18:35:49.351Z,28.32
2022-08-05T18:38:16.972Z,28.13
2022-08-05T18:41:55.810Z,27.94
2022-08-05T18:43:38.276Z,27.77
2022-08-05T18:46:09.692Z,27.67
2022-08-05T18:48:41.731Z,27.54
2022-08-05T18:52:04.715Z,27.40
2022-08-05T18:53:55.266Z,27.12
2022-08-05T18:56:25.301Z,27.05
2022-08-05T18:58:54.781Z,27.06
2022-08-05T19:01:47.251Z,27.11
2022-08-05T19:04:24.302Z,27.11
2022-08-05T19:06:51.030Z,27.03
2022-08-05T19:09:17.620Z,26.98
2022-08-05T19:12:01.117Z,27.05
2022-08-05T19:14:52.419Z,27.23
2022-08-05T19:17:15.074Z,27.31
2022-08-05T19:19:44.170Z,27.35
2022-08-05T19:22:17.275Z,27.40
2022-08-05T19:24:54.462Z,27.41
2022-08-05T19:27:23.740Z,27.40
2022-08-05T19:29:50.532Z,27.34
2022-08-05T19:32:17.443Z,27.26
2022-08-05T19:34:55.128Z,27.13
2022-08-05T19:37:22.372Z,27.15
2022-08-05T19:39:57.256Z,27.12
2022-08-05T19:42:36.123Z,27.08
2022-08-05T19:45:05.692Z,27.00
2022-08-05T19:47:33.019Z,26.96
2022-08-05T19:50:02.038Z,26.96
2022-08-05T19:52:40.311Z,26.94
2022-08-05T19:56:12.585Z,26.91
2022-08-05T19:58:06.775Z,26.88
2022-08-05T20:00:41.534Z,26.85
2022-08-05T20:03:09.238Z,26.76
2022-08-05T20:05:49.913Z,26.76
2022-08-05T20:08:17.348Z,26.78
2022-08-05T20:10:43.948Z,26.76
2022-08-05T20:13:10.563Z,26.69
2022-08-05T20:15:51.904Z,26.68
2022-08-05T20:18:33.779Z,26.63
2022-08-05T20:21:05.147Z,26.61
2022-08-05T20:23:39.182Z,26.61
2022-08-05T20:26:17.612Z,26.58
2022-08-05T20:28:45.096Z,26.45
2022-08-05T20:31:11.906Z,26.41
2022-08-05T20:33:38.502Z,26.37
2022-08-05T20:36:11.124Z,26.33
2022-08-05T20:38:37.983Z,26.23
2022-08-05T20:41:08.081Z,26.11
2022-08-05T20:43:58.968Z,26.12
2022-08-05T20:46:25.204Z,26.09
2022-08-05T20:48:52.148Z,26.13
2022-08-05T20:51:20.087Z,26.12
2022-08-05T20:53:56.433Z,26.01
2022-08-05T20:56:28.946Z,26.01
2022-08-05T20:58:56.763Z,26.00
2022-08-05T21:01:38.577Z,26.01
2022-08-05T21:04:05.648Z,26.01
2022-08-05T21:06:33.595Z,25.99
2022-08-05T21:09:00.332Z,25.91
2022-08-05T21:12:07.186Z,25.82
2022-08-05T21:14:13.722Z,25.80
2022-08-05T21:16:41.077Z,25.83
2022-08-05T21:19:07.791Z,25.76
2022-08-05T21:21:43.665Z,25.70
2022-08-05T21:24:16.998Z,25.70
2022-08-05T21:26:58.485Z,25.73
2022-08-05T21:29:26.564Z,25.70
2022-08-05T21:31:58.160Z,25.64
2022-08-05T21:34:24.758Z,25.65
2022-08-05T21:36:52.673Z,25.59
2022-08-05T21:39:27.014Z,25.55
2022-08-05T21:42:01.994Z,25.54
2022-08-05T21:44:29.118Z,25.48
2022-08-05T21:46:58.182Z,25.46
2022-08-05T21:50:00.164Z,25.36
2022-08-05T21:52:22.259Z,25.29
2022-08-05T21:54:55.129Z,25.25
2022-08-05T21:57:31.641Z,25.20
2022-08-05T22:00:05.488Z,25.24
2022-08-05T22:02:33.289Z,25.33
2022-08-05T22:05:00.220Z,25.26
2022-08-05T22:07:54.155Z,25.14
2022-08-05T22:10:15.881Z,25.13
2022-08-05T22:12:44.717Z,24.93
2022-08-05T22:16:01.585Z,24.79
2022-08-05T22:18:04.448Z,24.74
2022-08-05T22:20:31.176Z,24.67
2022-08-05T22:22:59.994Z,24.63
2022-08-05T22:26:09.246Z,24.42
2022-08-05T22:28:13.185Z,24.35
2022-08-05T22:30:55.391Z,24.33
2022-08-05T22:33:56.523Z,24.25
2022-08-05T22:36:11.351Z,24.27
2022-08-05T22:38:43.411Z,23.74
2022-08-05T22:41:15.057Z,23.90
2022-08-05T22:43:41.709Z,23.81
2022-08-05T22:46:13.192Z,23.70
2022-08-05T22:48:40.281Z,23.54
2022-08-05T22:51:07.646Z,23.33
2022-08-05T22:53:35.827Z,23.29
2022-08-05T22:56:04.928Z,23.16
2022-08-05T22:58:36.633Z,23.13
2022-08-05T23:01:03.256Z,23.07
2022-08-05T23:03:57.738Z,23.04
2022-08-05T23:06:19.111Z,22.68
2022-08-05T23:08:45.746Z,22.68
2022-08-05T23:11:20.176Z,22.60
2022-08-05T23:13:51.596Z,22.46
2022-08-05T23:16:26.192Z,22.16
2022-08-05T23:19:00.236Z,21.92
2022-08-05T23:21:43.144Z,21.91
2022-08-05T23:24:15.134Z,21.85
2022-08-05T23:26:44.150Z,21.81
2022-08-05T23:29:15.765Z,21.66
2022-08-05T23:31:42.508Z,20.97
2022-08-05T23:34:09.074Z,21.12
2022-08-05T23:36:38.389Z,21.08
2022-08-05T23:39:07.256Z,20.97
2022-08-05T23:41:34.228Z,21.12
2022-08-05T23:44:08.995Z,21.07
2022-08-05T23:46:37.452Z,21.16
2022-08-05T23:49:15.983Z,21.20
2022-08-05T23:51:42.954Z,21.13
2022-08-05T23:54:25.261Z,20.69
2022-08-05T23:56:52.889Z,20.76
2022-08-05T23:59:20.834Z,20.92
